Back to Top

Language: 

My Weather Underground Personal Weather Station Historical Data with Graphs...

Delerius Weather Station Historical Data
Daily Summary for August 6, 2017 Units:  Metric    English   Both
« Previous Day
Next Day »
Daily Weekly Monthly Yearly Custom
  High: Low: Average:
Temperature: 19.9 °C 10.9 °C 15.2 °C
Dew Point: 13.6 °C 8.8 °C 11.1 °C
Humidity: 95 % 54 % 78 %
Wind Speed: 29 km/h 0 km/h 11.9 km/h
Wind Gust: 48.3 km/h - -
Wind:- - WSW
Pressure: 1019.5 hPa 1015.5 hPa -
Precipitation: 3.3 mm    
Historical Graphs
 
 
Tabular Data for August 6, 2017
Time Temperature Dew Point Pressure Wind Wind Speed Wind Gust Humidity Rainfall Rate (Hourly) solar Conditions
00:03 11.3 °C 9.1 °C 1019.2 hPa Calm     86 % 0 mm 0 W/m2
00:08 11.2 °C 8.9 °C 1019.2 hPa Calm   4.8 km/h 86 % 0 mm 0 W/m2
00:13 11.1 °C 8.8 °C 1018.8 hPa Calm   6.4 km/h 86 % 0 mm 0 W/m2
00:18 11.1 °C 9 °C 1018.8 hPa Calm   6.4 km/h 87 % 0 mm 0 W/m2
00:23 10.9 °C 8.8 °C 1018.8 hPa WNW 1.6 km/h 8 km/h 87 % 0 mm 0 W/m2
00:28 11 °C 9.1 °C 1018.8 hPa WNW 4.8 km/h 11.3 km/h 88 % 0 mm 0 W/m2
00:33 11.1 °C 9.3 °C 1018.8 hPa WNW 6.4 km/h 11.3 km/h 89 % 0 mm 0 W/m2
00:38 11.1 °C 9.3 °C 1018.8 hPa WNW 8 km/h 11.3 km/h 89 % 0 mm 0 W/m2
00:43 11.2 °C 9.4 °C 1018.8 hPa WNW 8 km/h 14.5 km/h 89 % 0 mm 0 W/m2
00:48 11.4 °C 9.7 °C 1018.8 hPa WNW 9.7 km/h 16.1 km/h 89 % 0 mm 0 W/m2
00:53 11.4 °C 9.7 °C 1018.8 hPa WNW 8 km/h 16.1 km/h 89 % 0 mm 0 W/m2
01:03 11.4 °C 9.5 °C 1018.8 hPa NW 4.8 km/h 11.3 km/h 88 % 0 mm 0 W/m2
01:08 11.4 °C 9.5 °C 1018.8 hPa NW 4.8 km/h 11.3 km/h 88 % 0 mm 0 W/m2
01:13 11.4 °C 9.5 °C 1019.2 hPa NW 6.4 km/h 11.3 km/h 88 % 0 mm 0 W/m2
01:18 11.4 °C 9.7 °C 1018.8 hPa NW 6.4 km/h 11.3 km/h 89 % 0 mm 0 W/m2
01:23 11.4 °C 9.7 °C 1019.2 hPa NW 6.4 km/h 12.9 km/h 89 % 0 mm 0 W/m2
01:28 11.4 °C 9.7 °C 1019.2 hPa NW 8 km/h 12.9 km/h 89 % 0 mm 0 W/m2
01:33 11.5 °C 9.7 °C 1019.2 hPa NW 8 km/h 12.9 km/h 89 % 0 mm 0 W/m2
01:38 11.5 °C 9.7 °C 1019.2 hPa NW 9.7 km/h 14.5 km/h 89 % 0 mm 0 W/m2
01:43 11.5 °C 9.7 °C 1019.2 hPa NW 9.7 km/h 14.5 km/h 89 % 0 mm 0 W/m2
01:48 11.6 °C 9.8 °C 1019.2 hPa NW 9.7 km/h 14.5 km/h 89 % 0 mm 0 W/m2
01:58 11.6 °C 9.8 °C 1019.2 hPa NW 9.7 km/h 14.5 km/h 89 % 0 mm 0 W/m2
02:03 11.6 °C 9.8 °C 1019.2 hPa NW 8 km/h 14.5 km/h 89 % 0 mm 0 W/m2
02:08 11.6 °C 9.8 °C 1018.8 hPa NW 9.7 km/h 14.5 km/h 89 % 0 mm 0 W/m2
02:13 11.6 °C 9.7 °C 1018.8 hPa NW 9.7 km/h 16.1 km/h 88 % 0 mm 0 W/m2
02:18 11.7 °C 9.8 °C 1018.8 hPa NW 8 km/h 16.1 km/h 88 % 0 mm 0 W/m2
02:23 11.7 °C 9.8 °C 1019.2 hPa NW 8 km/h 14.5 km/h 88 % 0 mm 0 W/m2
02:28 11.7 °C 9.8 °C 1018.8 hPa WNW 8 km/h 12.9 km/h 88 % 0 mm 0 W/m2
02:33 11.7 °C 9.8 °C 1018.8 hPa WNW 4.8 km/h 12.9 km/h 88 % 0 mm 0 W/m2
02:35 11.7 °C 9.8 °C 1018.8 hPa WNW 3.2 km/h 12.9 km/h 88 % 0 mm 0 W/m2
02:40 11.6 °C 9.7 °C 1018.8 hPa WNW 3.2 km/h 11.3 km/h 88 % 0 mm 0 W/m2
02:45 11.7 °C 9.9 °C 1018.8 hPa WNW 6.4 km/h 11.3 km/h 89 % 0 mm 0 W/m2
02:50 11.7 °C 9.9 °C 1018.8 hPa WNW 4.8 km/h 11.3 km/h 89 % 0 mm 0 W/m2
02:55 11.7 °C 9.8 °C 1018.8 hPa West 1.6 km/h 8 km/h 88 % 0 mm 0 W/m2
03:00 11.7 °C 9.8 °C 1018.8 hPa NW 1.6 km/h 11.3 km/h 88 % 0 mm 0 W/m2
03:05 11.7 °C 9.9 °C 1018.8 hPa WNW 3.2 km/h 11.3 km/h 89 % 0 mm 0 W/m2
03:10 11.8 °C 10.1 °C 1018.8 hPa WNW 1.6 km/h 8 km/h 89 % 0 mm 0 W/m2
03:15 11.7 °C 9.8 °C 1018.8 hPa Calm   6.4 km/h 88 % 0 mm 0 W/m2
03:20 11.7 °C 9.9 °C 1019.2 hPa WNW 1.6 km/h 6.4 km/h 89 % 0 mm 0 W/m2
03:25 11.7 °C 9.8 °C 1019.2 hPa Calm   3.2 km/h 88 % 0 mm 0 W/m2
03:30 11.7 °C 9.8 °C 1019.2 hPa Calm   8 km/h 88 % 0 mm 0 W/m2
03:35 11.7 °C 9.9 °C 1019.2 hPa WNW 3.2 km/h 8 km/h 89 % 0 mm 0 W/m2
03:40 11.7 °C 9.9 °C 1019.2 hPa WNW 3.2 km/h 8 km/h 89 % 0 mm 0 W/m2
03:45 11.7 °C 9.9 °C 1019.2 hPa WNW 3.2 km/h 11.3 km/h 89 % 0 mm 0 W/m2
03:50 11.7 °C 9.9 °C 1019.2 hPa NW 4.8 km/h 11.3 km/h 89 % 0 mm 0 W/m2
03:55 11.7 °C 9.8 °C 1019.2 hPa NW 6.4 km/h 12.9 km/h 88 % 0 mm 0 W/m2
04:00 11.8 °C 10.1 °C 1019.2 hPa WNW 8 km/h 12.9 km/h 89 % 0 mm 0 W/m2
04:05 11.8 °C 9.9 °C 1018.8 hPa WNW 8 km/h 12.9 km/h 88 % 0 mm 0 W/m2
04:10 11.8 °C 9.9 °C 1018.8 hPa WNW 8 km/h 12.9 km/h 88 % 0 mm 0 W/m2
04:15 11.8 °C 9.9 °C 1018.8 hPa WNW 8 km/h 12.9 km/h 88 % 0 mm 0 W/m2
04:20 11.9 °C 10 °C 1018.8 hPa WNW 8 km/h 14.5 km/h 88 % 0 mm 0 W/m2
04:25 11.9 °C 9.8 °C 1018.8 hPa WNW 8 km/h 14.5 km/h 87 % 0 mm 0 W/m2
04:30 12 °C 9.9 °C 1018.8 hPa WNW 8 km/h 12.9 km/h 87 % 0 mm 0 W/m2
04:35 12 °C 9.9 °C 1018.8 hPa WNW 4.8 km/h 11.3 km/h 87 % 0 mm 0 W/m2
04:40 12 °C 9.9 °C 1018.8 hPa WNW 1.6 km/h 9.7 km/h 87 % 0 mm 0 W/m2
04:45 11.9 °C 9.8 °C 1018.8 hPa Calm   3.2 km/h 87 % 0 mm 0 W/m2
04:50 11.9 °C 9.8 °C 1018.8 hPa WNW 1.6 km/h 8 km/h 87 % 0 mm 0 W/m2
04:55 11.8 °C 9.7 °C 1018.8 hPa WNW 1.6 km/h 8 km/h 87 % 0 mm 0 W/m2
05:00 11.8 °C 9.7 °C 1018.8 hPa Calm   6.4 km/h 87 % 0 mm 0 W/m2
05:05 11.8 °C 9.7 °C 1018.8 hPa Calm     87 % 0 mm 0 W/m2
05:11 11.7 °C 9.6 °C 1018.8 hPa WNW 1.6 km/h 8 km/h 87 % 0 mm 0 W/m2
05:16 11.7 °C 9.8 °C 1018.8 hPa West 3.2 km/h 11.3 km/h 88 % 0 mm 0 W/m2
05:20 11.7 °C 9.8 °C 1018.8 hPa West 4.8 km/h 11.3 km/h 88 % 0 mm 0 W/m2
05:25 11.7 °C 9.8 °C 1018.8 hPa West 4.8 km/h 11.3 km/h 88 % 0 mm 7 W/m2
05:36 11.6 °C 9.5 °C 1018.8 hPa WNW 4.8 km/h 8 km/h 87 % 0 mm 11 W/m2
05:46 11.4 °C 9.5 °C 1018.8 hPa WNW 4.8 km/h 9.7 km/h 88 % 0 mm 14 W/m2
05:56 11.5 °C 9.6 °C 1018.8 hPa WNW 11.3 km/h 17.7 km/h 88 % 0 mm 18 W/m2
06:01 11.6 °C 9.7 °C 1018.8 hPa WNW 12.9 km/h 19.3 km/h 88 % 0 mm 25 W/m2
06:06 11.7 °C 9.6 °C 1018.8 hPa WNW 11.3 km/h 19.3 km/h 87 % 0 mm 32 W/m2
06:11 11.7 °C 9.6 °C 1018.8 hPa West 8 km/h 14.5 km/h 87 % 0 mm 39 W/m2
06:21 11.8 °C 9.7 °C 1018.8 hPa WNW 9.7 km/h 17.7 km/h 87 % 0 mm 56 W/m2
06:26 11.9 °C 9.8 °C 1018.8 hPa WNW 9.7 km/h 17.7 km/h 87 % 0 mm 70 W/m2
06:36 12.1 °C 10 °C 1018.8 hPa West 6.4 km/h 12.9 km/h 87 % 0 mm 60 W/m2
06:41 12.2 °C 10.1 °C 1019.2 hPa WNW 8 km/h 12.9 km/h 87 % 0 mm 98 W/m2
06:46 12.3 °C 10 °C 1018.8 hPa WNW 9.7 km/h 16.1 km/h 86 % 0 mm 102 W/m2
06:51 12.5 °C 10.2 °C 1019.2 hPa WNW 9.7 km/h 19.3 km/h 86 % 0 mm 83 W/m2
06:56 12.6 °C 10.3 °C 1019.2 hPa WNW 9.7 km/h 19.3 km/h 86 % 0 mm 90 W/m2
07:01 12.7 °C 10.2 °C 1019.2 hPa WNW 8 km/h 14.5 km/h 85 % 0 mm 114 W/m2
07:06 12.9 °C 10.4 °C 1019.2 hPa WNW 8 km/h 14.5 km/h 85 % 0 mm 155 W/m2
07:11 13.2 °C 10.7 °C 1019.2 hPa WNW 9.7 km/h 14.5 km/h 85 % 0 mm 132 W/m2
07:16 13.3 °C 10.7 °C 1019.2 hPa WNW 9.7 km/h 14.5 km/h 84 % 0 mm 93 W/m2
07:21 13.5 °C 10.7 °C 1019.2 hPa WNW 8 km/h 14.5 km/h 83 % 0 mm 98 W/m2
07:26 13.6 °C 10.8 °C 1019.2 hPa WNW 4.8 km/h 11.3 km/h 83 % 0 mm 109 W/m2
07:31 13.7 °C 10.9 °C 1019.5 hPa West 4.8 km/h 11.3 km/h 83 % 0 mm 139 W/m2
07:36 13.8 °C 10.9 °C 1019.5 hPa West 6.4 km/h 12.9 km/h 83 % 0 mm 169 W/m2
07:41 13.9 °C 10.9 °C 1019.5 hPa West 8 km/h 14.5 km/h 82 % 0 mm 207 W/m2
07:46 14.1 °C 11.1 °C 1019.5 hPa West 4.8 km/h 14.5 km/h 82 % 0 mm 202 W/m2
07:52 14.3 °C 11.3 °C 1019.5 hPa West 1.6 km/h 8 km/h 82 % 0 mm 195 W/m2
07:57 14.6 °C 11.2 °C 1019.5 hPa West 1.6 km/h 9.7 km/h 80 % 0 mm 169 W/m2
08:02 14.7 °C 11.1 °C 1019.5 hPa WSW 3.2 km/h 9.7 km/h 79 % 0 mm 241 W/m2
08:07 14.9 °C 11.1 °C 1019.5 hPa WSW 4.8 km/h 11.3 km/h 78 % 0 mm 199 W/m2
08:12 15.2 °C 11 °C 1019.5 hPa WSW 8 km/h 16.1 km/h 76 % 0 mm 193 W/m2
08:17 15.3 °C 11.1 °C 1019.5 hPa WSW 8 km/h 16.1 km/h 76 % 0 mm 380 W/m2
08:22 15.7 °C 11.5 °C 1019.5 hPa WSW 8 km/h 12.9 km/h 76 % 0 mm 302 W/m2
08:27 15.9 °C 11.3 °C 1019.5 hPa WSW 8 km/h 12.9 km/h 74 % 0 mm 480 W/m2
08:32 16.1 °C 10.8 °C 1019.5 hPa WSW 9.7 km/h 17.7 km/h 71 % 0 mm 353 W/m2
08:37 16.2 °C 10.5 °C 1019.5 hPa WSW 12.9 km/h 20.9 km/h 69 % 0 mm 297 W/m2
08:42 16.3 °C 10.6 °C 1019.5 hPa WSW 12.9 km/h 20.9 km/h 69 % 0 mm 257 W/m2
08:47 16.3 °C 9.9 °C 1019.5 hPa WSW 12.9 km/h 20.9 km/h 66 % 0 mm 424 W/m2
08:52 16.4 °C 10.1 °C 1019.5 hPa SW 14.5 km/h 20.9 km/h 66 % 0 mm 390 W/m2
08:57 16.6 °C 10.4 °C 1019.5 hPa SW 12.9 km/h 20.9 km/h 67 % 0 mm 283 W/m2
09:02 16.7 °C 10.6 °C 1019.5 hPa WSW 11.3 km/h 19.3 km/h 67 % 0 mm 424 W/m2
09:07 16.9 °C 10.3 °C 1019.5 hPa WSW 12.9 km/h 20.9 km/h 65 % 0 mm 322 W/m2
09:12 16.9 °C 10.3 °C 1019.5 hPa SW 12.9 km/h 20.9 km/h 65 % 0 mm 436 W/m2
09:17 16.9 °C 10.3 °C 1019.5 hPa SW 12.9 km/h 19.3 km/h 65 % 0 mm 504 W/m2
09:22 16.9 °C 10.1 °C 1019.5 hPa SW 12.9 km/h 19.3 km/h 64 % 0 mm 385 W/m2
09:27 16.9 °C 10.1 °C 1019.5 hPa SW 12.9 km/h 19.3 km/h 64 % 0 mm 554 W/m2
09:37 17.2 °C 10.1 °C 1019.5 hPa SW 12.9 km/h 20.9 km/h 63 % 0 mm 396 W/m2
09:42 17.1 °C 9.8 °C 1019.5 hPa SW 14.5 km/h 25.7 km/h 62 % 0 mm 366 W/m2
09:47 17 °C 9.9 °C 1019.5 hPa SSW 14.5 km/h 25.7 km/h 63 % 0 mm 341 W/m2
09:52 17.1 °C 10 °C 1019.5 hPa SW 12.9 km/h 22.5 km/h 63 % 0 mm 330 W/m2
09:57 17.1 °C 10 °C 1019.5 hPa SW 11.3 km/h 17.7 km/h 63 % 0 mm 299 W/m2
10:02 17.1 °C 10 °C 1019.5 hPa WSW 11.3 km/h 17.7 km/h 63 % 0 mm 320 W/m2
10:07 17.1 °C 9.8 °C 1019.5 hPa WSW 12.9 km/h 19.3 km/h 62 % 0 mm 329 W/m2
10:12 17.1 °C 9.8 °C 1019.5 hPa WSW 12.9 km/h 19.3 km/h 62 % 0 mm 302 W/m2
10:17 17.1 °C 10 °C 1019.5 hPa WSW 12.9 km/h 19.3 km/h 63 % 0 mm 322 W/m2
10:22 17.1 °C 10.4 °C 1019.5 hPa WSW 11.3 km/h 20.9 km/h 65 % 0 mm 325 W/m2
10:27 17 °C 10.4 °C 1019.5 hPa SW 11.3 km/h 20.9 km/h 65 % 0 mm 290 W/m2
10:32 16.9 °C 10.3 °C 1019.5 hPa SW 12.9 km/h 20.9 km/h 65 % 0 mm 288 W/m2
10:37 16.9 °C 10.5 °C 1019.5 hPa SW 12.9 km/h 20.9 km/h 66 % 0 mm 285 W/m2
10:42 16.9 °C 10.5 °C 1019.5 hPa WSW 12.9 km/h 20.9 km/h 66 % 0 mm 320 W/m2
10:43 16.9 °C 10.5 °C 1019.5 hPa WSW 12.9 km/h 20.9 km/h 66 % 0 mm 320 W/m2
10:48 16.9 °C 10.5 °C 1019.5 hPa SW 12.9 km/h 30.6 km/h 66 % 0 mm 362 W/m2
10:53 16.9 °C 10.5 °C 1019.5 hPa SW 14.5 km/h 30.6 km/h 66 % 0 mm 362 W/m2
11:03 17.1 °C 10.9 °C 1019.5 hPa SW 14.5 km/h 22.5 km/h 67 % 0 mm 496 W/m2
11:08 17.4 °C 11.2 °C 1019.5 hPa SW 12.9 km/h 20.9 km/h 67 % 0 mm 547 W/m2
11:13 17.4 °C 10.7 °C 1019.5 hPa SW 12.9 km/h 20.9 km/h 65 % 0 mm 295 W/m2
11:18 17.4 °C 11 °C 1019.5 hPa WSW 11.3 km/h 20.9 km/h 66 % 0 mm 318 W/m2
11:29 17.1 °C 10.7 °C 1019.5 hPa SSW 16.1 km/h 30.6 km/h 66 % 0 mm 264 W/m2
11:34 17.2 °C 11 °C 1019.5 hPa SW 14.5 km/h 22.5 km/h 67 % 0 mm 559 W/m2
11:39 17.2 °C 10.8 °C 1019.5 hPa SW 14.5 km/h 20.9 km/h 66 % 0 mm 274 W/m2
11:44 17.2 °C 10.8 °C 1019.5 hPa SW 14.5 km/h 22.5 km/h 66 % 0 mm 355 W/m2
11:49 17.3 °C 10.9 °C 1019.5 hPa SW 14.5 km/h 22.5 km/h 66 % 0 mm 469 W/m2
11:54 17.4 °C 10.7 °C 1019.5 hPa SW 12.9 km/h 20.9 km/h 65 % 0 mm 429 W/m2
11:59 17.6 °C 10.9 °C 1019.2 hPa SW 14.5 km/h 24.1 km/h 65 % 0 mm 357 W/m2
12:04 17.8 °C 10.7 °C 1019.2 hPa WSW 14.5 km/h 24.1 km/h 63 % 0 mm 264 W/m2
12:09 17.7 °C 10.6 °C 1019.2 hPa WSW 12.9 km/h 22.5 km/h 63 % 0 mm 250 W/m2
12:14 17.7 °C 10.8 °C 1019.2 hPa WSW 12.9 km/h 22.5 km/h 64 % 0 mm 441 W/m2
12:19 17.8 °C 10.7 °C 1019.2 hPa WSW 12.9 km/h 22.5 km/h 63 % 0 mm 515 W/m2
12:24 18.1 °C 11.2 °C 1018.8 hPa WSW 12.9 km/h 22.5 km/h 64 % 0 mm 520 W/m2
12:29 18.4 °C 11 °C 1018.8 hPa WSW 12.9 km/h 24.1 km/h 62 % 0 mm 728 W/m2
12:34 18.7 °C 10.8 °C 1019.2 hPa SW 14.5 km/h 30.6 km/h 60 % 0 mm 650 W/m2
12:39 18.8 °C 10.9 °C 1018.8 hPa SW 12.9 km/h 30.6 km/h 60 % 0 mm 849 W/m2
12:44 18.9 °C 9.9 °C 1018.8 hPa SW 16.1 km/h 33.8 km/h 56 % 0 mm 322 W/m2
12:49 18.9 °C 10.4 °C 1018.8 hPa SW 17.7 km/h 33.8 km/h 58 % 0 mm 874 W/m2
12:54 19.2 °C 10.7 °C 1018.8 hPa SW 16.1 km/h 29 km/h 58 % 0 mm 979 W/m2
12:59 19.4 °C 10.9 °C 1018.5 hPa SW 16.1 km/h 30.6 km/h 58 % 0 mm 923 W/m2
13:04 19.7 °C 11.2 °C 1018.5 hPa SW 16.1 km/h 30.6 km/h 58 % 0 mm 728 W/m2
13:09 19.8 °C 10.8 °C 1018.5 hPa WSW 16.1 km/h 29 km/h 56 % 0 mm 728 W/m2
13:14 19.9 °C 10.6 °C 1018.5 hPa WSW 16.1 km/h 29 km/h 55 % 0 mm 751 W/m2
13:19 19.6 °C 10.3 °C 1018.5 hPa SW 17.7 km/h 32.2 km/h 55 % 0 mm 701 W/m2
13:24 19.5 °C 10.5 °C 1018.5 hPa SW 16.1 km/h 32.2 km/h 56 % 0 mm 369 W/m2
13:29 19.3 °C 10.3 °C 1018.5 hPa SSW 14.5 km/h 25.7 km/h 56 % 0 mm 294 W/m2
13:34 19 °C 10.3 °C 1018.5 hPa SSW 16.1 km/h 30.6 km/h 57 % 0 mm 251 W/m2
13:39 18.8 °C 9.8 °C 1018.5 hPa SW 19.3 km/h 37 km/h 56 % 0 mm 364 W/m2
13:44 18.8 °C 10.1 °C 1018.2 hPa SW 19.3 km/h 37 km/h 57 % 0 mm 388 W/m2
13:45 18.8 °C 10.1 °C 1018.2 hPa SW 19.3 km/h 37 km/h 57 % 0 mm 388 W/m2
13:50 19 °C 10 °C 1018.2 hPa SW 17.7 km/h 32.2 km/h 56 % 0 mm 420 W/m2
13:55 19.4 °C 10.4 °C 1018.2 hPa SW 19.3 km/h 35.4 km/h 56 % 0 mm 854 W/m2
14:00 19.6 °C 10.6 °C 1018.2 hPa SW 17.7 km/h 35.4 km/h 56 % 0 mm 403 W/m2
14:05 19.5 °C 10.5 °C 1018.2 hPa SW 17.7 km/h 29 km/h 56 % 0 mm 446 W/m2
14:10 19.6 °C 10.3 °C 1018.2 hPa SW 19.3 km/h 35.4 km/h 55 % 0 mm 410 W/m2
14:15 19.3 °C 9.8 °C 1018.2 hPa SW 20.9 km/h 35.4 km/h 54 % 0 mm 299 W/m2
14:20 19.4 °C 10.4 °C 1018.2 hPa WSW 19.3 km/h 32.2 km/h 56 % 0 mm 427 W/m2
14:25 19.5 °C 10.2 °C 1017.8 hPa SW 17.7 km/h 38.6 km/h 55 % 0 mm 912 W/m2
14:30 19.6 °C 10.6 °C 1018.2 hPa SW 19.3 km/h 38.6 km/h 56 % 0 mm 656 W/m2
14:35 19.7 °C 10.4 °C 1018.2 hPa WSW 17.7 km/h 38.6 km/h 55 % 0 mm 656 W/m2
14:40 19.7 °C 10.1 °C 1018.2 hPa WSW 19.3 km/h 32.2 km/h 54 % 0 mm 359 W/m2
14:45 19.4 °C 9.8 °C 1018.2 hPa SW 22.5 km/h 40.2 km/h 54 % 0 mm 457 W/m2
14:50 19.3 °C 10.1 °C 1017.8 hPa SW 24.1 km/h 41.8 km/h 55 % 0 mm 383 W/m2
14:55 19.3 °C 9.8 °C 1017.8 hPa SW 20.9 km/h 41.8 km/h 54 % 0 mm 438 W/m2
15:00 19.3 °C 10.1 °C 1017.8 hPa SW 20.9 km/h 33.8 km/h 55 % 0 mm 464 W/m2
15:06 19.4 °C 10.1 °C 1017.8 hPa WSW 20.9 km/h 33.8 km/h 55 % 0 mm 313 W/m2
15:11 19.3 °C 10.1 °C 1017.8 hPa SW 19.3 km/h 33.8 km/h 55 % 0 mm 278 W/m2
15:16 19.3 °C 10.3 °C 1017.8 hPa SW 17.7 km/h 33.8 km/h 56 % 0 mm 146 W/m2
15:21 19.1 °C 10.1 °C 1017.8 hPa WSW 16.1 km/h 29 km/h 56 % 0 mm 111 W/m2
15:26 18.9 °C 10.2 °C 1017.8 hPa WSW 16.1 km/h 29 km/h 57 % 0 mm 118 W/m2
15:31 18.7 °C 10.5 °C 1017.8 hPa SW 16.1 km/h 30.6 km/h 59 % 0 mm 132 W/m2
15:36 18.7 °C 10.5 °C 1017.8 hPa SW 17.7 km/h 30.6 km/h 59 % 0 mm 116 W/m2
15:41 18.4 °C 10.5 °C 1017.8 hPa SW 17.7 km/h 30.6 km/h 60 % 0 mm 118 W/m2
15:46 18.3 °C 10.4 °C 1017.8 hPa SW 20.9 km/h 37 km/h 60 % 0 mm 144 W/m2
15:51 18.2 °C 10.3 °C 1017.8 hPa SW 20.9 km/h 38.6 km/h 60 % 0 mm 197 W/m2
15:56 18.2 °C 10.6 °C 1017.8 hPa SW 19.3 km/h 38.6 km/h 61 % 0 mm 181 W/m2
16:01 18.1 °C 10.4 °C 1017.8 hPa WSW 19.3 km/h 38.6 km/h 61 % 0 mm 171 W/m2
16:06 18.1 °C 10.7 °C 1017.8 hPa SW 17.7 km/h 32.2 km/h 62 % 0 mm 155 W/m2
16:11 18 °C 10.4 °C 1017.8 hPa SW 19.3 km/h 32.2 km/h 61 % 0 mm 135 W/m2
16:16 17.9 °C 10.8 °C 1017.8 hPa SW 17.7 km/h 32.2 km/h 63 % 0 mm 153 W/m2
16:21 17.8 °C 10.7 °C 1017.8 hPa SW 19.3 km/h 38.6 km/h 63 % 0 mm 142 W/m2
16:26 17.6 °C 10.9 °C 1017.8 hPa SW 22.5 km/h 38.6 km/h 65 % 0 mm 165 W/m2
16:31 17.3 °C 11.1 °C 1017.8 hPa SW 20.9 km/h 43.5 km/h 67 % 0 mm 190 W/m2
16:36 17 °C 11.3 °C 1017.8 hPa SW 22.5 km/h 43.5 km/h 69 % 0 mm 211 W/m2
16:41 16.9 °C 11.4 °C 1017.8 hPa SW 19.3 km/h 40.2 km/h 70 % 0 mm 229 W/m2
16:46 16.9 °C 11.4 °C 1017.5 hPa SW 17.7 km/h 37 km/h 70 % 0 mm 195 W/m2
17:01 17 °C 11.7 °C 1017.5 hPa SW 17.7 km/h 37 km/h 71 % 0 mm 221 W/m2
17:06 16.9 °C 11.6 °C 1017.5 hPa SW 22.5 km/h 41.8 km/h 71 % 0 mm 227 W/m2
17:11 16.9 °C 11.6 °C 1017.2 hPa SW 20.9 km/h 41.8 km/h 71 % 0 mm 237 W/m2
17:16 17 °C 11.7 °C 1017.2 hPa SSW 20.9 km/h 40.2 km/h 71 % 0 mm 236 W/m2
17:21 16.9 °C 11.6 °C 1017.2 hPa SSW 24.1 km/h 41.8 km/h 71 % 0 mm 234 W/m2
17:26 17 °C 12.1 °C 1017.2 hPa SW 24.1 km/h 41.8 km/h 73 % 0 mm 213 W/m2
17:31 17 °C 12.1 °C 1017.2 hPa SW 20.9 km/h 37 km/h 73 % 0 mm 186 W/m2
17:37 16.9 °C 12 °C 1017.2 hPa SW 20.9 km/h 41.8 km/h 73 % 0 mm 162 W/m2
17:42 16.8 °C 12.1 °C 1017.2 hPa SW 24.1 km/h 41.8 km/h 74 % 0 mm 137 W/m2
17:47 16.8 °C 12.1 °C 1017.2 hPa SW 22.5 km/h 40.2 km/h 74 % 0 mm 120 W/m2
17:52 16.8 °C 12.3 °C 1017.2 hPa SW 19.3 km/h 40.2 km/h 75 % 0 mm 113 W/m2
17:57 16.8 °C 12.3 °C 1017.2 hPa SW 17.7 km/h 37 km/h 75 % 0 mm 104 W/m2
18:02 16.7 °C 12.2 °C 1016.8 hPa SW 19.3 km/h 41.8 km/h 75 % 0 mm 102 W/m2
18:07 16.7 °C 12.2 °C 1016.8 hPa SW 19.3 km/h 41.8 km/h 75 % 0 mm 128 W/m2
18:12 16.7 °C 12.2 °C 1016.8 hPa SW 19.3 km/h 43.5 km/h 75 % 0 mm 130 W/m2
18:17 16.7 °C 12.2 °C 1016.8 hPa SW 24.1 km/h 48.3 km/h 75 % 0 mm 274 W/m2
18:22 16.8 °C 12.3 °C 1016.8 hPa SW 24.1 km/h 48.3 km/h 75 % 0 mm 197 W/m2
18:27 16.9 °C 12.4 °C 1016.8 hPa SW 24.1 km/h 48.3 km/h 75 % 0 mm 116 W/m2
18:32 16.8 °C 12.3 °C 1016.8 hPa SW 29 km/h 48.3 km/h 75 % 0 mm 77 W/m2
18:37 16.7 °C 12.2 °C 1016.5 hPa SW 29 km/h 43.5 km/h 75 % 0 mm 77 W/m2
18:42 16.7 °C 12.4 °C 1016.5 hPa SW 25.7 km/h 43.5 km/h 76 % 0 mm 76 W/m2
18:47 16.6 °C 12.3 °C 1016.5 hPa SW 24.1 km/h 37 km/h 76 % 0 mm 76 W/m2
18:52 16.5 °C 12.4 °C 1016.5 hPa SW 22.5 km/h 35.4 km/h 77 % 0 mm 70 W/m2
18:57 16.4 °C 12.9 °C 1016.5 hPa SW 20.9 km/h 33.8 km/h 80 % 0 mm 90 W/m2
19:02 16.1 °C 12.8 °C 1016.5 hPa SW 19.3 km/h 35.4 km/h 81 % 0 mm 86 W/m2
19:07 15.9 °C 13 °C 1016.5 hPa SW 19.3 km/h 35.4 km/h 83 % 0 mm 81 W/m2
19:12 15.7 °C 13 °C 1016.5 hPa SW 17.7 km/h 32.2 km/h 84 % 0 mm 60 W/m2
19:17 15.6 °C 13.1 °C 1016.8 hPa SW 16.1 km/h 32.2 km/h 85 % 0 mm 58 W/m2
19:22 15.4 °C 12.9 °C 1016.5 hPa SW 14.5 km/h 24.1 km/h 85 % 0 mm 70 W/m2
19:27 15.4 °C 13.1 °C 1016.8 hPa SW 14.5 km/h 24.1 km/h 86 % 0 mm 86 W/m2
19:32 15.3 °C 13.2 °C 1016.8 hPa SW 14.5 km/h 22.5 km/h 87 % 0 mm 76 W/m2
19:37 15.2 °C 13.2 °C 1016.8 hPa SW 16.1 km/h 24.1 km/h 88 % 0 mm 40 W/m2
19:42 15.1 °C 13.3 °C 1016.8 hPa SW 12.9 km/h 24.1 km/h 89 % 0.25 mm 33 W/m2
19:47 15 °C 13.2 °C 1016.8 hPa SW 12.9 km/h 19.3 km/h 89 % 0.25 mm 42 W/m2
19:53 14.9 °C 13.1 °C 1016.8 hPa SW 12.9 km/h 19.3 km/h 89 % 0.25 mm 28 W/m2
19:58 14.8 °C 13.3 °C 1016.8 hPa SW 14.5 km/h 22.5 km/h 91 % 0.51 mm 18 W/m2
20:03 14.7 °C 13.2 °C 1016.8 hPa SSW 16.1 km/h 24.1 km/h 91 % 0.51 mm 16 W/m2
20:08 14.6 °C 13.3 °C 1016.8 hPa SSW 14.5 km/h 24.1 km/h 92 % 0.51 mm 14 W/m2
20:13 14.5 °C 13.2 °C 1016.8 hPa SW 11.3 km/h 17.7 km/h 92 % 0.51 mm 16 W/m2
20:18 14.4 °C 13.1 °C 1016.8 hPa SW 8 km/h 16.1 km/h 92 % 0.51 mm 11 W/m2
20:23 14.4 °C 13.3 °C 1016.5 hPa SW 6.4 km/h 12.9 km/h 93 % 0.51 mm 5 W/m2
20:28 14.4 °C 13.3 °C 1016.5 hPa SSW 6.4 km/h 12.9 km/h 93 % 0.51 mm 5 W/m2
20:33 14.4 °C 13.3 °C 1016.5 hPa SSW 9.7 km/h 14.5 km/h 93 % 0.76 mm 0 W/m2
20:38 14.4 °C 13.3 °C 1016.5 hPa SW 11.3 km/h 19.3 km/h 93 % 0.76 mm 0 W/m2
20:43 14.3 °C 13.2 °C 1016.5 hPa SW 12.9 km/h 19.3 km/h 93 % 0.76 mm 0 W/m2
20:48 14.3 °C 13.2 °C 1016.5 hPa SW 11.3 km/h 17.7 km/h 93 % 0.76 mm 0 W/m2
20:53 14.3 °C 13.3 °C 1016.8 hPa SSW 9.7 km/h 17.7 km/h 94 % 1.02 mm 0 W/m2
20:58 14.3 °C 13.3 °C 1016.5 hPa SSW 8 km/h 12.9 km/h 94 % 1.02 mm 0 W/m2
21:03 14.3 °C 13.3 °C 1016.5 hPa SSW 6.4 km/h 11.3 km/h 94 % 1.02 mm 0 W/m2
21:08 14.3 °C 13.3 °C 1016.5 hPa SSW 6.4 km/h 12.9 km/h 94 % 0.76 mm 0 W/m2
21:13 14.3 °C 13.3 °C 1016.5 hPa SSW 8 km/h 16.1 km/h 94 % 0.76 mm 0 W/m2
21:18 14.3 °C 13.3 °C 1016.5 hPa SSW 8 km/h 16.1 km/h 94 % 0.76 mm 0 W/m2
21:23 14.3 °C 13.3 °C 1016.5 hPa SSW 8 km/h 14.5 km/h 94 % 1.02 mm 0 W/m2
21:28 14.3 °C 13.3 °C 1016.5 hPa SSW 8 km/h 14.5 km/h 94 % 1.02 mm 0 W/m2
21:33 14.3 °C 13.3 °C 1016.5 hPa SSW 8 km/h 14.5 km/h 94 % 1.02 mm 0 W/m2
21:38 14.3 °C 13.5 °C 1016.5 hPa SSW 6.4 km/h 14.5 km/h 95 % 1.02 mm 0 W/m2
21:43 14.4 °C 13.6 °C 1016.5 hPa SSW 6.4 km/h 11.3 km/h 95 % 0.76 mm 0 W/m2
21:48 14.3 °C 13.3 °C 1016.1 hPa SSW 6.4 km/h 12.9 km/h 94 % 0.76 mm 0 W/m2
21:53 14.3 °C 13.5 °C 1016.1 hPa SSW 6.4 km/h 16.1 km/h 95 % 0.76 mm 0 W/m2
21:58 14.3 °C 13.5 °C 1016.1 hPa SSW 8 km/h 16.1 km/h 95 % 0.51 mm 0 W/m2
22:03 14.4 °C 13.6 °C 1016.1 hPa SSW 9.7 km/h 17.7 km/h 95 % 0.51 mm 0 W/m2
22:09 14.4 °C 13.6 °C 1016.1 hPa SSW 9.7 km/h 17.7 km/h 95 % 0.76 mm 0 W/m2
22:14 14.4 °C 13.6 °C 1016.1 hPa SSW 9.7 km/h 19.3 km/h 95 % 1.02 mm 0 W/m2
22:19 14.4 °C 13.6 °C 1016.1 hPa SSW 9.7 km/h 19.3 km/h 95 % 0.76 mm 0 W/m2
22:29 14.3 °C 13.5 °C 1016.1 hPa SSW 12.9 km/h 19.3 km/h 95 % 1.02 mm 0 W/m2
22:34 14.3 °C 13.5 °C 1016.1 hPa SSW 11.3 km/h 19.3 km/h 95 % 0.76 mm 0 W/m2
22:39 14.3 °C 13.5 °C 1015.8 hPa SSW 9.7 km/h 16.1 km/h 95 % 0.76 mm 0 W/m2
22:44 14.3 °C 13.5 °C 1015.8 hPa SW 9.7 km/h 17.7 km/h 95 % 1.02 mm 0 W/m2
22:49 14.3 °C 13.5 °C 1015.8 hPa SW 8 km/h 17.7 km/h 95 % 1.02 mm 0 W/m2
22:54 14.3 °C 13.5 °C 1015.8 hPa SW 6.4 km/h 12.9 km/h 95 % 0.76 mm 0 W/m2
22:59 14.3 °C 13.5 °C 1015.8 hPa SW 8 km/h 12.9 km/h 95 % 1.02 mm 0 W/m2
23:04 14.2 °C 13.4 °C 1015.8 hPa WSW 9.7 km/h 17.7 km/h 95 % 1.02 mm 0 W/m2
23:09 14.2 °C 13.4 °C 1015.8 hPa SW 9.7 km/h 17.7 km/h 95 % 0.76 mm 0 W/m2
23:14 14.2 °C 13.4 °C 1015.8 hPa SW 11.3 km/h 17.7 km/h 95 % 0.51 mm 0 W/m2
23:19 14.2 °C 13.4 °C 1015.8 hPa SW 11.3 km/h 17.7 km/h 95 % 0.51 mm 0 W/m2
23:24 14.2 °C 13.2 °C 1015.5 hPa SW 9.7 km/h 16.1 km/h 94 % 0.51 mm 0 W/m2
23:29 14.2 °C 13.2 °C 1015.5 hPa WSW 9.7 km/h 16.1 km/h 94 % 0.51 mm 0 W/m2
23:34 14.2 °C 13.2 °C 1015.5 hPa WSW 11.3 km/h 17.7 km/h 94 % 0.51 mm 0 W/m2
23:39 14.2 °C 13.2 °C 1015.5 hPa SW 11.3 km/h 17.7 km/h 94 % 0.51 mm 0 W/m2
23:44 14.2 °C 13.2 °C 1015.5 hPa WSW 9.7 km/h 17.7 km/h 94 % 0.51 mm 0 W/m2
23:49 14.2 °C 13.2 °C 1015.5 hPa WSW 9.7 km/h 19.3 km/h 94 % 0.51 mm 0 W/m2
23:54 14.2 °C 13.2 °C 1015.5 hPa WSW 9.7 km/h 19.3 km/h 94 % 0.51 mm 0 W/m2
23:59 14.2 °C 13.2 °C 1015.5 hPa WSW 9.7 km/h 16.1 km/h 94 % 0.25 mm 0 W/m2
Delerius-Weather
Compliments of Weather Underground - 2.25 mb

Data updates at regular intervals.